Terminal Aerodrome Forecast
Issued by NWS

Home | Current Version | Previous Version | Text Only | Print | Product List | Glossary On
Versions: 1 2 3 4 5 6 7 8 9 10 11 12 13 14 15 16 17 18 19 20 21 22
641
FTUS46 KMFR 062202 AAB
TAFLMT
TAF AMD
KLMT 062202Z 0622/0718 03011G19KT P6SM OVC050
     FM070100 36018G25KT P6SM -TSRA SCT025 OVC040CB
     FM070300 34012KT P6SM -SHRA OVC060=

USA.gov is the U.S. government's official web portal to all federal, state and local government web resources and services.